sensor_id;sensor_type;location;lat;lon;timestamp;P1;durP1;ratioP1;P2;durP2;ratioP2
28934;SDS011;16044;52.726;-2.108;2022-10-16T00:01:31;16.08;;;2.33;;
28934;SDS011;16044;52.726;-2.108;2022-10-16T00:03:58;16.20;;;2.70;;
28934;SDS011;16044;52.726;-2.108;2022-10-16T00:06:27;16.90;;;2.58;;
28934;SDS011;16044;52.726;-2.108;2022-10-16T00:08:55;16.50;;;2.58;;
28934;SDS011;16044;52.726;-2.108;2022-10-16T00:13:56;13.73;;;2.47;;
28934;SDS011;16044;52.726;-2.108;2022-10-16T00:16:25;16.40;;;2.30;;
28934;SDS011;16044;52.726;-2.108;2022-10-16T00:18:54;18.67;;;2.90;;
28934;SDS011;16044;52.726;-2.108;2022-10-16T00:21:23;14.88;;;2.28;;
28934;SDS011;16044;52.726;-2.108;2022-10-16T00:23:53;10.32;;;1.65;;
28934;SDS011;16044;52.726;-2.108;2022-10-16T00:26:26;14.05;;;2.00;;
28934;SDS011;16044;52.726;-2.108;2022-10-16T00:28:55;13.95;;;2.47;;
28934;SDS011;16044;52.726;-2.108;2022-10-16T00:31:23;15.05;;;2.10;;
28934;SDS011;16044;52.726;-2.108;2022-10-16T00:33:51;14.82;;;2.15;;
28934;SDS011;16044;52.726;-2.108;2022-10-16T00:36:19;15.57;;;2.60;;
28934;SDS011;16044;52.726;-2.108;2022-10-16T00:38:52;12.63;;;1.90;;
28934;SDS011;16044;52.726;-2.108;2022-10-16T00:41:22;14.70;;;2.20;;
28934;SDS011;16044;52.726;-2.108;2022-10-16T00:43:54;16.17;;;2.20;;
28934;SDS011;16044;52.726;-2.108;2022-10-16T00:46:39;13.45;;;1.92;;
28934;SDS011;16044;52.726;-2.108;2022-10-16T00:49:09;13.93;;;1.77;;
28934;SDS011;16044;52.726;-2.108;2022-10-16T00:51:49;12.82;;;2.03;;
28934;SDS011;16044;52.726;-2.108;2022-10-16T00:54:25;11.75;;;1.50;;
28934;SDS011;16044;52.726;-2.108;2022-10-16T00:56:56;11.07;;;1.70;;
28934;SDS011;16044;52.726;-2.108;2022-10-16T00:59:31;10.10;;;1.52;;
28934;SDS011;16044;52.726;-2.108;2022-10-16T01:02:03;7.88;;;1.40;;
28934;SDS011;16044;52.726;-2.108;2022-10-16T01:04:54;8.35;;;1.30;;
28934;SDS011;16044;52.726;-2.108;2022-10-16T01:13:12;8.80;;;1.42;;
28934;SDS011;16044;52.726;-2.108;2022-10-16T01:15:55;9.40;;;1.30;;
28934;SDS011;16044;52.726;-2.108;2022-10-16T01:18:34;8.45;;;1.20;;
28934;SDS011;16044;52.726;-2.108;2022-10-16T01:21:21;12.63;;;1.67;;
28934;SDS011;16044;52.726;-2.108;2022-10-16T01:29:41;8.85;;;1.00;;
28934;SDS011;16044;52.726;-2.108;2022-10-16T01:32:36;9.57;;;1.27;;
28934;SDS011;16044;52.726;-2.108;2022-10-16T01:37:40;8.05;;;1.10;;
28934;SDS011;16044;52.726;-2.108;2022-10-16T01:40:15;3.67;;;0.70;;
28934;SDS011;16044;52.726;-2.108;2022-10-16T01:42:46;7.68;;;1.10;;
28934;SDS011;16044;52.726;-2.108;2022-10-16T01:45:19;7.43;;;1.25;;
28934;SDS011;16044;52.726;-2.108;2022-10-16T01:47:47;7.68;;;1.15;;
28934;SDS011;16044;52.726;-2.108;2022-10-16T01:50:16;6.70;;;1.10;;
28934;SDS011;16044;52.726;-2.108;2022-10-16T01:52:48;6.88;;;1.00;;
28934;SDS011;16044;52.726;-2.108;2022-10-16T01:55:21;8.75;;;1.40;;
28934;SDS011;16044;52.726;-2.108;2022-10-16T02:00:21;8.73;;;0.90;;
28934;SDS011;16044;52.726;-2.108;2022-10-16T02:02:49;7.20;;;0.80;;
28934;SDS011;16044;52.726;-2.108;2022-10-16T02:05:28;9.90;;;1.10;;
28934;SDS011;16044;52.726;-2.108;2022-10-16T02:07:57;7.63;;;1.02;;
28934;SDS011;16044;52.726;-2.108;2022-10-16T02:10:28;7.30;;;0.95;;
28934;SDS011;16044;52.726;-2.108;2022-10-16T02:13:16;5.22;;;0.70;;
28934;SDS011;16044;52.726;-2.108;2022-10-16T02:16:14;8.02;;;1.00;;
28934;SDS011;16044;52.726;-2.108;2022-10-16T02:18:42;8.65;;;1.17;;
28934;SDS011;16044;52.726;-2.108;2022-10-16T02:24:01;10.00;;;1.25;;
28934;SDS011;16044;52.726;-2.108;2022-10-16T02:26:57;7.72;;;1.00;;
28934;SDS011;16044;52.726;-2.108;2022-10-16T02:29:38;6.70;;;1.15;;
28934;SDS011;16044;52.726;-2.108;2022-10-16T02:32:17;10.18;;;1.35;;
28934;SDS011;16044;52.726;-2.108;2022-10-16T02:34:48;8.68;;;1.15;;
28934;SDS011;16044;52.726;-2.108;2022-10-16T02:37:16;8.45;;;1.10;;
28934;SDS011;16044;52.726;-2.108;2022-10-16T02:39:45;9.85;;;1.30;;
28934;SDS011;16044;52.726;-2.108;2022-10-16T02:42:12;8.73;;;1.40;;
28934;SDS011;16044;52.726;-2.108;2022-10-16T02:44:40;8.35;;;1.13;;
28934;SDS011;16044;52.726;-2.108;2022-10-16T02:47:07;10.05;;;1.10;;
28934;SDS011;16044;52.726;-2.108;2022-10-16T02:49:34;8.25;;;1.02;;
28934;SDS011;16044;52.726;-2.108;2022-10-16T02:52:01;8.63;;;1.25;;
28934;SDS011;16044;52.726;-2.108;2022-10-16T02:54:29;6.82;;;1.05;;
28934;SDS011;16044;52.726;-2.108;2022-10-16T02:56:56;6.22;;;1.20;;
28934;SDS011;16044;52.726;-2.108;2022-10-16T02:59:23;7.60;;;0.95;;
28934;SDS011;16044;52.726;-2.108;2022-10-16T03:01:49;16.55;;;1.25;;
28934;SDS011;16044;52.726;-2.108;2022-10-16T03:04:16;11.32;;;1.40;;
28934;SDS011;16044;52.726;-2.108;2022-10-16T03:06:43;10.80;;;1.45;;
28934;SDS011;16044;52.726;-2.108;2022-10-16T03:09:10;7.03;;;1.40;;
28934;SDS011;16044;52.726;-2.108;2022-10-16T03:11:37;10.23;;;1.50;;
28934;SDS011;16044;52.726;-2.108;2022-10-16T03:14:04;11.32;;;1.30;;
28934;SDS011;16044;52.726;-2.108;2022-10-16T03:16:31;9.02;;;1.50;;
28934;SDS011;16044;52.726;-2.108;2022-10-16T03:18:58;11.60;;;1.20;;
28934;SDS011;16044;52.726;-2.108;2022-10-16T03:21:25;10.70;;;1.40;;
28934;SDS011;16044;52.726;-2.108;2022-10-16T03:23:52;8.88;;;1.20;;
28934;SDS011;16044;52.726;-2.108;2022-10-16T03:26:18;13.77;;;1.70;;
28934;SDS011;16044;52.726;-2.108;2022-10-16T03:28:45;16.23;;;1.50;;
28934;SDS011;16044;52.726;-2.108;2022-10-16T03:31:12;16.33;;;1.48;;
28934;SDS011;16044;52.726;-2.108;2022-10-16T03:33:39;14.55;;;1.95;;
28934;SDS011;16044;52.726;-2.108;2022-10-16T03:36:06;8.80;;;1.25;;
28934;SDS011;16044;52.726;-2.108;2022-10-16T03:38:33;13.43;;;1.50;;
28934;SDS011;16044;52.726;-2.108;2022-10-16T03:40:59;12.48;;;1.42;;
28934;SDS011;16044;52.726;-2.108;2022-10-16T03:43:26;11.07;;;1.55;;
28934;SDS011;16044;52.726;-2.108;2022-10-16T03:45:54;15.18;;;1.40;;
28934;SDS011;16044;52.726;-2.108;2022-10-16T03:48:20;13.30;;;1.60;;
28934;SDS011;16044;52.726;-2.108;2022-10-16T03:50:47;15.95;;;1.58;;
28934;SDS011;16044;52.726;-2.108;2022-10-16T03:53:14;12.80;;;1.50;;
28934;SDS011;16044;52.726;-2.108;2022-10-16T03:55:42;12.65;;;1.65;;
28934;SDS011;16044;52.726;-2.108;2022-10-16T03:58:10;13.02;;;1.50;;
28934;SDS011;16044;52.726;-2.108;2022-10-16T04:00:41;10.52;;;1.48;;
28934;SDS011;16044;52.726;-2.108;2022-10-16T04:03:09;19.55;;;1.83;;
28934;SDS011;16044;52.726;-2.108;2022-10-16T04:05:37;12.00;;;1.85;;
28934;SDS011;16044;52.726;-2.108;2022-10-16T04:08:04;10.57;;;1.15;;
28934;SDS011;16044;52.726;-2.108;2022-10-16T04:10:31;8.70;;;1.10;;
28934;SDS011;16044;52.726;-2.108;2022-10-16T04:12:58;17.67;;;1.60;;
28934;SDS011;16044;52.726;-2.108;2022-10-16T04:15:25;12.15;;;2.08;;
28934;SDS011;16044;52.726;-2.108;2022-10-16T04:17:52;11.38;;;1.50;;
28934;SDS011;16044;52.726;-2.108;2022-10-16T04:20:19;15.25;;;1.75;;
28934;SDS011;16044;52.726;-2.108;2022-10-16T04:22:46;10.63;;;1.60;;
28934;SDS011;16044;52.726;-2.108;2022-10-16T04:25:13;12.82;;;1.50;;
28934;SDS011;16044;52.726;-2.108;2022-10-16T04:27:40;11.20;;;1.38;;
28934;SDS011;16044;52.726;-2.108;2022-10-16T04:30:11;8.23;;;1.23;;
28934;SDS011;16044;52.726;-2.108;2022-10-16T04:32:38;14.13;;;1.60;;
28934;SDS011;16044;52.726;-2.108;2022-10-16T04:35:06;12.73;;;1.33;;
28934;SDS011;16044;52.726;-2.108;2022-10-16T04:37:33;11.73;;;1.38;;
28934;SDS011;16044;52.726;-2.108;2022-10-16T04:40:00;17.52;;;1.88;;
28934;SDS011;16044;52.726;-2.108;2022-10-16T04:42:27;10.80;;;1.25;;
28934;SDS011;16044;52.726;-2.108;2022-10-16T04:44:54;14.43;;;1.58;;
28934;SDS011;16044;52.726;-2.108;2022-10-16T04:47:21;13.32;;;1.80;;
28934;SDS011;16044;52.726;-2.108;2022-10-16T04:49:48;10.15;;;1.15;;
28934;SDS011;16044;52.726;-2.108;2022-10-16T04:52:15;11.25;;;1.70;;
28934;SDS011;16044;52.726;-2.108;2022-10-16T04:54:42;13.70;;;1.40;;
28934;SDS011;16044;52.726;-2.108;2022-10-16T04:57:11;12.70;;;1.60;;
28934;SDS011;16044;52.726;-2.108;2022-10-16T04:59:38;11.88;;;1.40;;
28934;SDS011;16044;52.726;-2.108;2022-10-16T05:02:05;11.48;;;1.63;;
28934;SDS011;16044;52.726;-2.108;2022-10-16T05:04:32;11.13;;;1.38;;
28934;SDS011;16044;52.726;-2.108;2022-10-16T05:06:59;14.52;;;1.27;;
28934;SDS011;16044;52.726;-2.108;2022-10-16T05:09:25;8.27;;;1.10;;
28934;SDS011;16044;52.726;-2.108;2022-10-16T05:11:52;8.38;;;1.20;;
28934;SDS011;16044;52.726;-2.108;2022-10-16T05:14:19;9.07;;;1.35;;
28934;SDS011;16044;52.726;-2.108;2022-10-16T05:16:46;14.45;;;2.25;;
28934;SDS011;16044;52.726;-2.108;2022-10-16T05:19:14;12.07;;;1.52;;
28934;SDS011;16044;52.726;-2.108;2022-10-16T05:21:53;15.23;;;1.50;;
28934;SDS011;16044;52.726;-2.108;2022-10-16T05:24:20;10.52;;;1.30;;
28934;SDS011;16044;52.726;-2.108;2022-10-16T05:26:46;14.27;;;1.50;;
28934;SDS011;16044;52.726;-2.108;2022-10-16T05:29:14;6.43;;;1.17;;
28934;SDS011;16044;52.726;-2.108;2022-10-16T05:31:40;9.32;;;1.30;;
28934;SDS011;16044;52.726;-2.108;2022-10-16T05:34:07;8.25;;;0.88;;
28934;SDS011;16044;52.726;-2.108;2022-10-16T05:36:34;9.20;;;1.25;;
28934;SDS011;16044;52.726;-2.108;2022-10-16T05:39:01;11.02;;;1.27;;
28934;SDS011;16044;52.726;-2.108;2022-10-16T05:41:29;7.13;;;1.08;;
28934;SDS011;16044;52.726;-2.108;2022-10-16T05:43:55;8.90;;;1.02;;
28934;SDS011;16044;52.726;-2.108;2022-10-16T05:46:22;12.95;;;1.40;;
28934;SDS011;16044;52.726;-2.108;2022-10-16T05:48:51;7.35;;;0.90;;
28934;SDS011;16044;52.726;-2.108;2022-10-16T05:51:19;6.65;;;0.90;;
28934;SDS011;16044;52.726;-2.108;2022-10-16T05:53:46;8.70;;;1.05;;
28934;SDS011;16044;52.726;-2.108;2022-10-16T05:56:13;11.15;;;1.48;;
28934;SDS011;16044;52.726;-2.108;2022-10-16T05:58:41;10.38;;;0.93;;
28934;SDS011;16044;52.726;-2.108;2022-10-16T06:01:12;6.22;;;0.98;;
28934;SDS011;16044;52.726;-2.108;2022-10-16T06:03:42;7.10;;;0.57;;
28934;SDS011;16044;52.726;-2.108;2022-10-16T06:06:10;8.25;;;1.00;;
28934;SDS011;16044;52.726;-2.108;2022-10-16T06:08:40;13.02;;;1.30;;
28934;SDS011;16044;52.726;-2.108;2022-10-16T06:11:11;8.57;;;1.23;;
28934;SDS011;16044;52.726;-2.108;2022-10-16T06:13:57;9.27;;;1.40;;
28934;SDS011;16044;52.726;-2.108;2022-10-16T06:16:28;10.10;;;1.25;;
28934;SDS011;16044;52.726;-2.108;2022-10-16T06:18:55;13.57;;;1.45;;
28934;SDS011;16044;52.726;-2.108;2022-10-16T06:21:23;9.68;;;1.13;;
28934;SDS011;16044;52.726;-2.108;2022-10-16T06:23:51;13.00;;;1.67;;
28934;SDS011;16044;52.726;-2.108;2022-10-16T06:26:19;10.07;;;1.45;;
28934;SDS011;16044;52.726;-2.108;2022-10-16T06:28:49;13.02;;;1.80;;
28934;SDS011;16044;52.726;-2.108;2022-10-16T06:31:17;10.65;;;1.50;;
28934;SDS011;16044;52.726;-2.108;2022-10-16T06:33:44;14.25;;;1.73;;
28934;SDS011;16044;52.726;-2.108;2022-10-16T06:36:15;17.48;;;1.40;;
28934;SDS011;16044;52.726;-2.108;2022-10-16T06:38:44;11.95;;;1.30;;
28934;SDS011;16044;52.726;-2.108;2022-10-16T06:41:12;9.35;;;1.50;;
28934;SDS011;16044;52.726;-2.108;2022-10-16T06:43:44;13.05;;;1.80;;
28934;SDS011;16044;52.726;-2.108;2022-10-16T06:46:13;9.38;;;1.50;;
28934;SDS011;16044;52.726;-2.108;2022-10-16T06:48:42;8.23;;;1.80;;
28934;SDS011;16044;52.726;-2.108;2022-10-16T06:51:13;16.00;;;1.45;;
28934;SDS011;16044;52.726;-2.108;2022-10-16T06:53:42;12.52;;;1.58;;
28934;SDS011;16044;52.726;-2.108;2022-10-16T06:56:31;8.63;;;1.58;;
28934;SDS011;16044;52.726;-2.108;2022-10-16T06:58:59;12.73;;;1.65;;
28934;SDS011;16044;52.726;-2.108;2022-10-16T07:01:26;17.80;;;2.08;;
28934;SDS011;16044;52.726;-2.108;2022-10-16T07:03:54;9.98;;;1.60;;
28934;SDS011;16044;52.726;-2.108;2022-10-16T07:06:21;17.00;;;1.80;;
28934;SDS011;16044;52.726;-2.108;2022-10-16T07:08:51;14.05;;;1.52;;
28934;SDS011;16044;52.726;-2.108;2022-10-16T07:11:20;14.27;;;1.80;;
28934;SDS011;16044;52.726;-2.108;2022-10-16T07:13:49;12.10;;;1.83;;
28934;SDS011;16044;52.726;-2.108;2022-10-16T07:16:22;14.02;;;1.83;;
28934;SDS011;16044;52.726;-2.108;2022-10-16T07:18:53;13.30;;;1.80;;
28934;SDS011;16044;52.726;-2.108;2022-10-16T07:21:27;10.82;;;1.75;;
28934;SDS011;16044;52.726;-2.108;2022-10-16T07:24:03;9.38;;;1.55;;
28934;SDS011;16044;52.726;-2.108;2022-10-16T07:26:33;16.92;;;2.05;;
28934;SDS011;16044;52.726;-2.108;2022-10-16T07:29:03;8.27;;;1.40;;
28934;SDS011;16044;52.726;-2.108;2022-10-16T07:31:30;13.25;;;1.92;;
28934;SDS011;16044;52.726;-2.108;2022-10-16T07:33:58;14.50;;;2.00;;
28934;SDS011;16044;52.726;-2.108;2022-10-16T07:36:26;13.52;;;1.70;;
28934;SDS011;16044;52.726;-2.108;2022-10-16T07:38:53;18.25;;;1.90;;
28934;SDS011;16044;52.726;-2.108;2022-10-16T07:41:25;14.57;;;2.33;;
28934;SDS011;16044;52.726;-2.108;2022-10-16T07:43:53;16.33;;;2.08;;
28934;SDS011;16044;52.726;-2.108;2022-10-16T07:46:22;8.73;;;1.50;;
28934;SDS011;16044;52.726;-2.108;2022-10-16T07:48:50;9.95;;;1.70;;
28934;SDS011;16044;52.726;-2.108;2022-10-16T07:51:18;12.05;;;1.35;;
28934;SDS011;16044;52.726;-2.108;2022-10-16T07:53:48;11.07;;;1.55;;
28934;SDS011;16044;52.726;-2.108;2022-10-16T07:56:16;11.60;;;1.52;;
28934;SDS011;16044;52.726;-2.108;2022-10-16T07:58:44;11.05;;;2.15;;
28934;SDS011;16044;52.726;-2.108;2022-10-16T08:01:13;9.18;;;1.73;;
28934;SDS011;16044;52.726;-2.108;2022-10-16T08:03:42;10.63;;;1.88;;
28934;SDS011;16044;52.726;-2.108;2022-10-16T08:06:17;12.82;;;1.80;;
28934;SDS011;16044;52.726;-2.108;2022-10-16T08:08:52;9.90;;;2.08;;
28934;SDS011;16044;52.726;-2.108;2022-10-16T08:11:18;13.30;;;2.58;;
28934;SDS011;16044;52.726;-2.108;2022-10-16T08:13:45;12.60;;;1.92;;
28934;SDS011;16044;52.726;-2.108;2022-10-16T08:16:12;10.90;;;1.70;;
28934;SDS011;16044;52.726;-2.108;2022-10-16T08:18:40;11.40;;;1.55;;
28934;SDS011;16044;52.726;-2.108;2022-10-16T08:21:08;12.07;;;1.92;;
28934;SDS011;16044;52.726;-2.108;2022-10-16T08:23:46;14.32;;;2.13;;
28934;SDS011;16044;52.726;-2.108;2022-10-16T08:26:23;8.82;;;1.70;;
28934;SDS011;16044;52.726;-2.108;2022-10-16T08:28:50;12.77;;;1.77;;
28934;SDS011;16044;52.726;-2.108;2022-10-16T08:31:18;10.82;;;2.10;;
28934;SDS011;16044;52.726;-2.108;2022-10-16T08:33:46;9.25;;;1.70;;
28934;SDS011;16044;52.726;-2.108;2022-10-16T08:36:14;8.43;;;1.90;;
28934;SDS011;16044;52.726;-2.108;2022-10-16T08:38:42;9.00;;;1.73;;
28934;SDS011;16044;52.726;-2.108;2022-10-16T08:43:42;10.90;;;1.60;;
28934;SDS011;16044;52.726;-2.108;2022-10-16T08:46:35;14.90;;;1.88;;
28934;SDS011;16044;52.726;-2.108;2022-10-16T08:49:23;8.88;;;1.90;;
28934;SDS011;16044;52.726;-2.108;2022-10-16T08:51:51;10.18;;;1.60;;
28934;SDS011;16044;52.726;-2.108;2022-10-16T08:55:01;11.50;;;1.95;;
28934;SDS011;16044;52.726;-2.108;2022-10-16T08:57:16;12.38;;;1.45;;
28934;SDS011;16044;52.726;-2.108;2022-10-16T08:59:50;12.35;;;1.70;;
28934;SDS011;16044;52.726;-2.108;2022-10-16T09:02:29;12.60;;;1.77;;
28934;SDS011;16044;52.726;-2.108;2022-10-16T09:18:58;7.15;;;1.80;;
28934;SDS011;16044;52.726;-2.108;2022-10-16T09:21:36;13.27;;;2.28;;
28934;SDS011;16044;52.726;-2.108;2022-10-16T09:24:26;9.38;;;1.85;;
28934;SDS011;16044;52.726;-2.108;2022-10-16T09:26:54;15.88;;;1.92;;
28934;SDS011;16044;52.726;-2.108;2022-10-16T09:29:21;12.95;;;1.60;;
28934;SDS011;16044;52.726;-2.108;2022-10-16T09:31:52;11.88;;;2.13;;
28934;SDS011;16044;52.726;-2.108;2022-10-16T09:34:30;12.57;;;1.83;;
28934;SDS011;16044;52.726;-2.108;2022-10-16T09:37:03;8.27;;;1.50;;
28934;SDS011;16044;52.726;-2.108;2022-10-16T09:39:45;9.80;;;1.67;;
28934;SDS011;16044;52.726;-2.108;2022-10-16T09:42:15;7.80;;;1.40;;
28934;SDS011;16044;52.726;-2.108;2022-10-16T09:45:02;8.63;;;1.80;;
28934;SDS011;16044;52.726;-2.108;2022-10-16T09:47:31;12.98;;;1.92;;
28934;SDS011;16044;52.726;-2.108;2022-10-16T09:50:03;8.98;;;1.30;;
28934;SDS011;16044;52.726;-2.108;2022-10-16T09:52:47;13.48;;;1.77;;
28934;SDS011;16044;52.726;-2.108;2022-10-16T09:55:15;10.05;;;1.55;;
28934;SDS011;16044;52.726;-2.108;2022-10-16T09:57:54;7.82;;;1.20;;
28934;SDS011;16044;52.726;-2.108;2022-10-16T10:00:22;10.82;;;1.45;;
28934;SDS011;16044;52.726;-2.108;2022-10-16T10:02:50;9.35;;;1.50;;
28934;SDS011;16044;52.726;-2.108;2022-10-16T10:05:39;7.57;;;1.17;;
28934;SDS011;16044;52.726;-2.108;2022-10-16T10:08:06;9.80;;;1.50;;
28934;SDS011;16044;52.726;-2.108;2022-10-16T10:10:44;9.60;;;1.40;;
28934;SDS011;16044;52.726;-2.108;2022-10-16T10:13:24;7.82;;;1.50;;
28934;SDS011;16044;52.726;-2.108;2022-10-16T10:15:53;10.52;;;1.33;;
28934;SDS011;16044;52.726;-2.108;2022-10-16T10:18:21;10.77;;;1.65;;
28934;SDS011;16044;52.726;-2.108;2022-10-16T10:20:57;10.70;;;1.38;;
28934;SDS011;16044;52.726;-2.108;2022-10-16T10:23:27;14.93;;;1.50;;
28934;SDS011;16044;52.726;-2.108;2022-10-16T10:28:45;9.10;;;1.27;;
28934;SDS011;16044;52.726;-2.108;2022-10-16T10:37:20;9.38;;;1.42;;
28934;SDS011;16044;52.726;-2.108;2022-10-16T10:40:11;10.55;;;1.42;;
28934;SDS011;16044;52.726;-2.108;2022-10-16T10:45:38;8.77;;;1.50;;
28934;SDS011;16044;52.726;-2.108;2022-10-16T10:51:19;9.70;;;1.38;;
28934;SDS011;16044;52.726;-2.108;2022-10-16T11:02:41;12.55;;;1.05;;
28934;SDS011;16044;52.726;-2.108;2022-10-16T11:05:31;6.82;;;1.23;;
28934;SDS011;16044;52.726;-2.108;2022-10-16T11:10:45;6.55;;;1.05;;
28934;SDS011;16044;52.726;-2.108;2022-10-16T11:13:36;6.95;;;1.05;;
28934;SDS011;16044;52.726;-2.108;2022-10-16T11:16:17;7.55;;;1.00;;
28934;SDS011;16044;52.726;-2.108;2022-10-16T11:21:25;6.05;;;0.85;;
28934;SDS011;16044;52.726;-2.108;2022-10-16T11:26:34;9.77;;;1.13;;
28934;SDS011;16044;52.726;-2.108;2022-10-16T11:29:10;5.22;;;0.93;;
28934;SDS011;16044;52.726;-2.108;2022-10-16T11:31:49;6.18;;;0.90;;
28934;SDS011;16044;52.726;-2.108;2022-10-16T11:39:44;8.38;;;1.13;;
28934;SDS011;16044;52.726;-2.108;2022-10-16T11:42:21;8.07;;;1.42;;
28934;SDS011;16044;52.726;-2.108;2022-10-16T11:47:52;7.75;;;1.20;;
28934;SDS011;16044;52.726;-2.108;2022-10-16T11:50:31;8.70;;;1.10;;
28934;SDS011;16044;52.726;-2.108;2022-10-16T11:56:17;5.60;;;1.10;;
28934;SDS011;16044;52.726;-2.108;2022-10-16T12:01:53;4.93;;;1.02;;
28934;SDS011;16044;52.726;-2.108;2022-10-16T12:04:56;7.13;;;1.10;;
28934;SDS011;16044;52.726;-2.108;2022-10-16T12:07:46;7.57;;;1.13;;
28934;SDS011;16044;52.726;-2.108;2022-10-16T12:10:31;7.57;;;1.10;;
28934;SDS011;16044;52.726;-2.108;2022-10-16T12:13:39;9.45;;;1.83;;
28934;SDS011;16044;52.726;-2.108;2022-10-16T12:18:39;6.55;;;1.40;;
28934;SDS011;16044;52.726;-2.108;2022-10-16T12:21:09;8.85;;;1.40;;
28934;SDS011;16044;52.726;-2.108;2022-10-16T12:26:36;4.85;;;1.10;;
28934;SDS011;16044;52.726;-2.108;2022-10-16T12:29:20;8.52;;;1.90;;
28934;SDS011;16044;52.726;-2.108;2022-10-16T12:32:05;6.03;;;1.58;;
28934;SDS011;16044;52.726;-2.108;2022-10-16T12:35:24;10.93;;;1.70;;
28934;SDS011;16044;52.726;-2.108;2022-10-16T12:38:04;5.78;;;1.60;;
28934;SDS011;16044;52.726;-2.108;2022-10-16T12:40:35;8.30;;;2.00;;
28934;SDS011;16044;52.726;-2.108;2022-10-16T12:46:01;5.82;;;1.80;;
28934;SDS011;16044;52.726;-2.108;2022-10-16T12:48:36;8.15;;;1.85;;
28934;SDS011;16044;52.726;-2.108;2022-10-16T12:51:34;6.60;;;1.38;;
28934;SDS011;16044;52.726;-2.108;2022-10-16T13:16:28;6.00;;;1.00;;
28934;SDS011;16044;52.726;-2.108;2022-10-16T13:22:22;6.35;;;1.10;;
28934;SDS011;16044;52.726;-2.108;2022-10-16T13:27:59;7.47;;;1.00;;
28934;SDS011;16044;52.726;-2.108;2022-10-16T13:30:34;7.28;;;1.25;;
28934;SDS011;16044;52.726;-2.108;2022-10-16T13:35:48;4.65;;;1.02;;
28934;SDS011;16044;52.726;-2.108;2022-10-16T13:38:21;7.05;;;1.10;;
28934;SDS011;16044;52.726;-2.108;2022-10-16T13:40:59;7.15;;;1.13;;
28934;SDS011;16044;52.726;-2.108;2022-10-16T13:43:41;7.68;;;1.15;;
28934;SDS011;16044;52.726;-2.108;2022-10-16T13:46:13;4.87;;;1.20;;
28934;SDS011;16044;52.726;-2.108;2022-10-16T13:48:55;8.63;;;1.23;;
28934;SDS011;16044;52.726;-2.108;2022-10-16T13:51:27;5.75;;;1.25;;
28934;SDS011;16044;52.726;-2.108;2022-10-16T13:53:56;3.83;;;1.02;;
28934;SDS011;16044;52.726;-2.108;2022-10-16T13:56:30;6.15;;;1.30;;
28934;SDS011;16044;52.726;-2.108;2022-10-16T13:59:00;5.40;;;1.17;;
28934;SDS011;16044;52.726;-2.108;2022-10-16T14:01:40;6.10;;;1.30;;
28934;SDS011;16044;52.726;-2.108;2022-10-16T14:04:11;6.38;;;2.15;;
28934;SDS011;16044;52.726;-2.108;2022-10-16T14:06:41;4.70;;;0.93;;
28934;SDS011;16044;52.726;-2.108;2022-10-16T14:09:27;5.53;;;1.25;;
28934;SDS011;16044;52.726;-2.108;2022-10-16T14:11:57;8.20;;;1.40;;
28934;SDS011;16044;52.726;-2.108;2022-10-16T14:14:34;4.55;;;1.00;;
28934;SDS011;16044;52.726;-2.108;2022-10-16T14:17:22;5.38;;;1.05;;
28934;SDS011;16044;52.726;-2.108;2022-10-16T14:19:57;6.25;;;1.15;;
28934;SDS011;16044;52.726;-2.108;2022-10-16T14:28:04;5.35;;;1.30;;
28934;SDS011;16044;52.726;-2.108;2022-10-16T14:30:57;6.78;;;2.17;;
28934;SDS011;16044;52.726;-2.108;2022-10-16T14:35:59;6.80;;;0.90;;
28934;SDS011;16044;52.726;-2.108;2022-10-16T14:38:30;5.78;;;0.98;;
28934;SDS011;16044;52.726;-2.108;2022-10-16T14:40:59;7.90;;;1.15;;
28934;SDS011;16044;52.726;-2.108;2022-10-16T14:43:32;8.20;;;0.90;;
28934;SDS011;16044;52.726;-2.108;2022-10-16T14:46:06;3.60;;;1.35;;
28934;SDS011;16044;52.726;-2.108;2022-10-16T14:48:41;6.88;;;1.10;;
28934;SDS011;16044;52.726;-2.108;2022-10-16T14:51:13;5.85;;;1.20;;
28934;SDS011;16044;52.726;-2.108;2022-10-16T14:53:43;7.57;;;2.25;;
28934;SDS011;16044;52.726;-2.108;2022-10-16T14:56:14;6.65;;;2.00;;
28934;SDS011;16044;52.726;-2.108;2022-10-16T14:58:49;9.85;;;1.50;;
28934;SDS011;16044;52.726;-2.108;2022-10-16T15:01:17;7.60;;;1.40;;
28934;SDS011;16044;52.726;-2.108;2022-10-16T15:03:45;6.18;;;1.30;;
28934;SDS011;16044;52.726;-2.108;2022-10-16T15:06:13;9.63;;;1.17;;
28934;SDS011;16044;52.726;-2.108;2022-10-16T15:08:42;10.32;;;1.50;;
28934;SDS011;16044;52.726;-2.108;2022-10-16T15:11:10;6.32;;;1.52;;
28934;SDS011;16044;52.726;-2.108;2022-10-16T15:13:40;8.48;;;2.20;;
28934;SDS011;16044;52.726;-2.108;2022-10-16T15:16:12;10.75;;;2.35;;
28934;SDS011;16044;52.726;-2.108;2022-10-16T15:18:41;8.50;;;1.98;;
28934;SDS011;16044;52.726;-2.108;2022-10-16T15:21:11;7.25;;;1.70;;
28934;SDS011;16044;52.726;-2.108;2022-10-16T15:23:52;7.03;;;1.75;;
28934;SDS011;16044;52.726;-2.108;2022-10-16T15:26:19;6.88;;;1.50;;
28934;SDS011;16044;52.726;-2.108;2022-10-16T15:28:46;10.30;;;1.60;;
28934;SDS011;16044;52.726;-2.108;2022-10-16T15:31:13;6.22;;;1.35;;
28934;SDS011;16044;52.726;-2.108;2022-10-16T15:33:40;6.43;;;1.40;;
28934;SDS011;16044;52.726;-2.108;2022-10-16T15:36:07;8.45;;;1.52;;
28934;SDS011;16044;52.726;-2.108;2022-10-16T15:38:34;10.63;;;1.40;;
28934;SDS011;16044;52.726;-2.108;2022-10-16T15:41:01;10.35;;;1.80;;
28934;SDS011;16044;52.726;-2.108;2022-10-16T15:43:28;5.38;;;1.30;;
28934;SDS011;16044;52.726;-2.108;2022-10-16T15:46:05;6.35;;;1.58;;
28934;SDS011;16044;52.726;-2.108;2022-10-16T15:48:37;6.43;;;1.35;;
28934;SDS011;16044;52.726;-2.108;2022-10-16T15:51:05;5.40;;;1.17;;
28934;SDS011;16044;52.726;-2.108;2022-10-16T15:53:33;8.18;;;1.48;;
28934;SDS011;16044;52.726;-2.108;2022-10-16T15:56:04;5.90;;;1.25;;
28934;SDS011;16044;52.726;-2.108;2022-10-16T15:58:33;7.72;;;1.40;;
28934;SDS011;16044;52.726;-2.108;2022-10-16T16:01:00;6.15;;;1.65;;
28934;SDS011;16044;52.726;-2.108;2022-10-16T16:03:28;8.50;;;1.65;;
28934;SDS011;16044;52.726;-2.108;2022-10-16T16:05:55;8.02;;;1.40;;
28934;SDS011;16044;52.726;-2.108;2022-10-16T16:08:23;7.80;;;1.42;;
28934;SDS011;16044;52.726;-2.108;2022-10-16T16:11:06;7.32;;;1.40;;
28934;SDS011;16044;52.726;-2.108;2022-10-16T16:13:37;5.55;;;1.27;;
28934;SDS011;16044;52.726;-2.108;2022-10-16T16:16:06;8.25;;;1.38;;
28934;SDS011;16044;52.726;-2.108;2022-10-16T16:18:37;9.00;;;1.50;;
28934;SDS011;16044;52.726;-2.108;2022-10-16T16:21:05;9.57;;;1.45;;
28934;SDS011;16044;52.726;-2.108;2022-10-16T16:23:32;8.93;;;1.73;;
28934;SDS011;16044;52.726;-2.108;2022-10-16T16:26:13;8.88;;;1.55;;
28934;SDS011;16044;52.726;-2.108;2022-10-16T16:28:50;11.23;;;2.00;;
28934;SDS011;16044;52.726;-2.108;2022-10-16T16:31:17;9.25;;;1.65;;
28934;SDS011;16044;52.726;-2.108;2022-10-16T16:33:44;8.35;;;2.05;;
28934;SDS011;16044;52.726;-2.108;2022-10-16T16:36:11;12.73;;;2.10;;
28934;SDS011;16044;52.726;-2.108;2022-10-16T16:38:41;11.07;;;2.10;;
28934;SDS011;16044;52.726;-2.108;2022-10-16T16:41:15;9.85;;;2.22;;
28934;SDS011;16044;52.726;-2.108;2022-10-16T16:43:51;9.85;;;2.30;;
28934;SDS011;16044;52.726;-2.108;2022-10-16T16:46:20;11.38;;;2.33;;
28934;SDS011;16044;52.726;-2.108;2022-10-16T16:48:48;8.88;;;1.98;;
28934;SDS011;16044;52.726;-2.108;2022-10-16T16:51:19;9.50;;;2.30;;
28934;SDS011;16044;52.726;-2.108;2022-10-16T16:53:49;7.85;;;1.83;;
28934;SDS011;16044;52.726;-2.108;2022-10-16T16:56:19;9.15;;;2.10;;
28934;SDS011;16044;52.726;-2.108;2022-10-16T16:58:49;11.80;;;2.03;;
28934;SDS011;16044;52.726;-2.108;2022-10-16T17:01:18;11.85;;;2.03;;
28934;SDS011;16044;52.726;-2.108;2022-10-16T17:03:47;8.82;;;1.95;;
28934;SDS011;16044;52.726;-2.108;2022-10-16T17:06:22;8.50;;;1.70;;
28934;SDS011;16044;52.726;-2.108;2022-10-16T17:08:52;9.57;;;2.27;;